x

South Santa Rosa Is. Ca (46069) Wave Buoy

3:50 - Thu 29th Jun 2017 All times are PDT. -7 hours from GMT.

  • Sig Wave height 6.9ft
  • Swell Direction
  • Peak Period 6s
  • Average Period 6s
  • Wind
    20mph, 25mph gusts
  • Sea Temp 57°f
  • Luft Temp 55°f
  • Sea Pressure 1012.4mb
  • South Santa Rosa Is. Ca
  • South Santa Rosa Is. Ca

More Historic Weather Station data

Upgrade to MSW Pro to gain access to the past 30 days of data for over 8000 Wavebouys and Weather Stations around the globe.

Join Pro

Comparision Forecast

View Surf forecast
   
Do 06/29 3:50 7ft 6s 6s 20 25 mph 1012.4mb 57f 55f
2:50 7ft 7s 6s 22 27 mph 1012.5mb 57f 56f
1:50 7.5ft 8s 6s 27 31 mph 1012.1mb 57f 56f
12:50 7ft 7s 6s 25 29 mph 1012.5mb 57f 56f
Mi 06/28 10:50 7ft 7s 5s 22 27 mph 1012.9mb 57f 56f
9:50 7ft 7s 6s 29 34 mph 1012.2mb 58f 56f
8:50 6ft 7s 6s 27 31 mph 1012mb 58f 57f
7:50 5.5ft 6s 5s 27 31 mph 1011.9mb 58f 57f
6:50 5.5ft 7s 5s 22 27 mph 1011.7mb 58f 58f
5:50 5.5ft 7s 5s 22 27 mph 1011.6mb 57f 58f
4:50 5.5ft 5s 5s 25 29 mph 1011.8mb 57f 58f
3:50 5ft 7s 5s 25 29 mph 1012.1mb 57f 57f
2:50 6ft 7s 5s 25 29 mph 1012.6mb 57f 57f
1:50 6ft 7s 5s 22 29 mph 1013mb 57f 57f
12:50 6ft 6s 5s 22 27 mph 1013.2mb 57f 56f
10:50 6.5ft 6s 6s 25 29 mph 1013mb 56f 56f
9:50 6ft 7s 5s 27 31 mph 1012.5mb 56f 55f
8:50 7ft 7s 6s 25 29 mph 1012.4mb 57f 55f
7:50 6ft 7s 6s 25 31 mph 1012.1mb 57f 55f
6:50 6ft 7s 5s 25 29 mph 1011.9mb 57f 55f
5:50 7ft 7s 6s 25 31 mph 1011.3mb 57f 55f
4:50 6ft 6s 5s 27 34 mph 1011.1mb 57f 56f
3:50 7ft 6s 6s 27 34 mph 1010.7mb 57f 56f
2:50 6.5ft 7s 5s 27 34 mph 1010.7mb 57f 56f
1:50 6.5ft 6s 5s 27 36 mph 1011mb 57f 56f
12:50 6ft 7s 5s 29 34 mph 1011.2mb 57f 56f
Di 06/27 11:50 6.5ft 6s 5s 29 34 mph 1011.7mb 57f 57f
10:50 7ft 7s 5s 29 34 mph 1011.8mb 57f 57f
9:50 6ft 6s 5s 29 34 mph 1011.6mb 57f 57f
8:50 6ft 6s 5s 27 34 mph 1011.6mb 57f 57f
7:50 6ft 6s 5s 29 34 mph 1011.4mb 58f 58f
6:50 6ft 6s 5s 27 31 mph 1011.3mb 58f 58f
5:50 6ft 6s 5s 27 34 mph 1011.4mb 57f 58f
4:50 5.5ft 6s 5s 25 34 mph 1012.1mb 58f 58f
3:50 5.5ft 6s 5s 27 31 mph 1012.2mb 58f 58f
2:50 5.5ft 14s 5s 27 31 mph 1012.9mb 58f 58f
1:50 6ft 6s 5s 27 34 mph 1013mb 58f 58f
12:50 6ft 6s 5s 25 31 mph 1013.5mb 57f 58f
11:50 5.5ft 13s 5s 25 31 mph 1013.5mb 57f 58f
10:50 6ft 6s 5s 27 34 mph 1013.5mb 57f 58f
9:50 6.5ft 6s 5s 27 31 mph 1013.2mb 57f 57f
8:50 6.5ft 6s 5s 27 31 mph 1013.5mb 57f 57f
7:50 6ft 6s 5s 25 31 mph 1012.8mb 57f 56f
6:50 6ft 6s 5s 27 34 mph 1012.3mb 57f 57f
5:50 5.5ft 6s 5s 29 36 mph 1011.5mb 57f 57f
4:50 6ft 6s 5s 27 34 mph 1011.6mb 57f 58f
3:50 6ft 6s 5s 27 34 mph 1011.7mb 57f 57f
2:50 5ft 6s 5s 22 27 mph 1012mb 57f 59f
1:50 5.5ft 6s 5s 27 31 mph 1012mb 57f 60f
12:50 5ft 15s 5s 27 31 mph 1012.7mb 58f 60f
Mo 06/26 11:50 5ft 6s 5s 22 27 mph 1013.3mb 58f 60f
10:50 4.5ft 14s 5s 22 27 mph 1013.6mb 58f 60f
9:50 4.5ft 6s 5s 20 22 mph 1013.6mb 58f 60f
8:50 4.5ft 6s 5s 20 22 mph 1013.7mb 58f 60f
7:50 5ft 6s 5s 18 20 mph 1013.8mb 58f 60f
6:50 5ft 6s 5s 20 25 mph 1013.5mb 58f 60f
5:50 5ft 6s 5s 20 25 mph 1013.5mb 58f 60f
4:50 5.5ft 6s 5s 20 27 mph 1014.2mb 58f 60f
3:50 5.5ft 6s 5s 22 27 mph 1014.4mb 57f 59f
2:50 5.5ft 15s 5s 22 29 mph 1014.6mb 57f 59f
1:50 5.5ft 6s 5s 25 29 mph 1014.4mb 57f 59f
12:50 5ft 5s 5s 25 29 mph 1014.2mb 57f 59f
11:50 5ft 6s 5s 25 27 mph 1014.5mb 57f 58f
10:50 5.5ft 6s 5s 22 27 mph 1014.6mb 57f 58f
9:50 5ft 6s 5s 22 27 mph 1014.2mb 57f 58f
8:50 6ft 6s 5s 22 27 mph 1013.8mb 56f 58f
7:50 6ft 6s 5s 25 29 mph 1013.2mb 56f 58f
6:50 5.5ft 6s 5s 27 34 mph 1012.7mb 56f 58f
5:50 5ft 6s 5s 25 31 mph 1012.7mb 56f 58f
4:50 6ft 6s 6s 25 31 mph 1012.4mb 57f 58f
3:50 6ft 6s 5s 25 31 mph 1012.4mb 56f 58f
2:50 6ft 6s 5s 22 27 mph 1012.7mb 56f 58f
1:50 5.5ft 6s 5s 25 29 mph 1012.8mb 56f 58f
12:50 6ft 6s 5s 25 29 mph 1012.9mb 57f 57f
So 06/25 11:50 6ft 6s 5s 22 27 mph 1013.5mb 56f 57f
10:50 6ft 7s 5s 20 25 mph 1013.7mb 56f 57f
9:50 6.5ft 7s 6s 22 29 mph 1013.3mb 56f 57f
8:50 6ft 6s 5s 25 29 mph 1013mb 56f 56f
7:50 6ft 6s 6s 25 31 mph 1012.7mb 56f 57f
6:50 6ft 7s 6s 27 34 mph 1012.5mb 56f 57f
5:50 6ft 6s 5s 25 29 mph 1012.7mb 56f 57f
4:50 6.5ft 7s 6s 25 29 mph 1013mb 56f 57f
3:50 6.5ft 7s 6s 27 31 mph 1013.1mb 56f 57f
2:50 6.5ft 6s 6s 25 31 mph 1013.4mb 56f 57f
1:50 6.5ft 7s 6s 27 31 mph 1013.9mb 56f 57f
12:50 6ft 7s 5s 25 27 mph 1014mb 56f 56f